Time;durP1;ratioP1;P1;durP2;ratioP2;P2;SDS_P1;SDS_P2;PMS_P1;PMS_P2;Temp;Humidity;BMP_temperature;BMP_pressure;BME280_temperature;BME280_humidity;BME280_pressure;Samples;Min_cycle;Max_cycle;Signal;HPM_P1;HPM_P2
2023/09/30 00:01:11;;;;;;;24.23;4.47;;;11.30;99.90;;;;;;5091269;28;20036;-77
2023/09/30 00:03:37;;;;;;;14.15;3.72;;;11.30;99.90;;;;;;5073850;28;20048;-77
2023/09/30 00:06:03;;;;;;;13.60;3.55;;;11.90;99.90;;;;;;5091759;28;20134;-76
2023/09/30 00:08:29;;;;;;;17.45;4.55;;;11.30;99.90;;;;;;5091438;28;20139;-77
2023/09/30 00:10:55;;;;;;;18.50;4.25;;;11.30;99.90;;;;;;5091746;28;20036;-77
2023/09/30 00:13:21;;;;;;;13.32;4.38;;;11.30;99.90;;;;;;5073017;28;20149;-76
2023/09/30 00:15:47;;;;;;;12.40;3.65;;;11.40;99.90;;;;;;5073379;28;20498;-75
2023/09/30 00:18:13;;;;;;;17.80;4.13;;;11.40;99.90;;;;;;5072963;28;20071;-76
2023/09/30 00:20:39;;;;;;;14.68;4.28;;;11.40;99.90;;;;;;5091642;28;20048;-76
2023/09/30 00:23:06;;;;;;;17.30;3.97;;;11.40;99.90;;;;;;5056313;28;20048;-77
2023/09/30 00:25:32;;;;;;;17.67;4.40;;;12.00;99.90;;;;;;5091331;28;20091;-76
2023/09/30 00:27:58;;;;;;;19.38;4.20;;;11.50;99.90;;;;;;5090967;28;20082;-76
2023/09/30 00:30:24;;;;;;;14.45;4.47;;;11.50;99.90;;;;;;5091228;28;20483;-76
2023/09/30 00:32:50;;;;;;;13.43;3.65;;;12.00;99.90;;;;;;5090867;28;20043;-76
2023/09/30 00:35:16;;;;;;;15.40;3.97;;;11.50;99.90;;;;;;5091187;28;20388;-77
2023/09/30 00:37:41;;;;;;;15.93;4.57;;;11.50;99.90;;;;;;5090439;28;20490;-75
2023/09/30 00:40:14;;;;;;;17.70;4.13;;;11.50;99.90;;;;;;5090884;28;20055;-76
2023/09/30 00:42:40;;;;;;;15.45;3.90;;;11.60;99.90;;;;;;5072592;28;20132;-76
2023/09/30 00:45:08;;;;;;;14.15;4.28;;;11.50;99.90;;;;;;5072558;28;20040;-76
2023/09/30 00:47:35;;;;;;;16.15;3.80;;;11.50;99.90;;;;;;5072276;28;20066;-75
2023/09/30 00:50:06;;;;;;;13.30;3.92;;;11.50;99.90;;;;;;5090693;28;20984;-77
2023/09/30 00:52:33;;;;;;;16.63;3.75;;;11.50;99.90;;;;;;5072241;28;20127;-75
2023/09/30 00:54:59;;;;;;;15.45;4.22;;;11.50;99.90;;;;;;5072215;28;20047;-75
2023/09/30 00:57:25;;;;;;;13.75;4.25;;;11.50;99.90;;;;;;5090610;28;20051;-76
2023/09/30 00:59:51;;;;;;;17.30;4.15;;;12.00;99.90;;;;;;5090326;28;20078;-75
2023/09/30 01:02:18;;;;;;;18.10;4.20;;;11.70;99.90;;;;;;5072003;28;20435;-76
2023/09/30 01:04:44;;;;;;;17.40;4.20;;;12.00;99.90;;;;;;5072182;28;20144;-76
2023/09/30 01:07:11;;;;;;;17.20;3.72;;;11.40;99.90;;;;;;5071961;28;20503;-76
2023/09/30 01:09:37;;;;;;;9.48;3.70;;;11.40;99.90;;;;;;5072687;28;20040;-76
2023/09/30 01:12:04;;;;;;;15.88;4.22;;;11.40;99.90;;;;;;5071848;28;20031;-76
2023/09/30 01:14:30;;;;;;;17.95;4.47;;;11.40;99.90;;;;;;5090437;28;20383;-77
2023/09/30 01:16:57;;;;;;;14.20;3.72;;;11.40;99.90;;;;;;5089875;28;20043;-76
2023/09/30 01:19:24;;;;;;;16.48;4.32;;;11.40;99.90;;;;;;5071648;28;20048;-75
2023/09/30 01:21:59;;;;;;;11.77;4.75;;;11.40;99.90;;;;;;5089738;28;20051;-75
2023/09/30 01:24:37;;;;;;;21.55;4.63;;;11.50;99.90;;;;;;5071387;28;20054;-75
2023/09/30 01:27:03;;;;;;;21.75;5.10;;;11.40;99.90;;;;;;5071906;28;20055;-74
2023/09/30 01:29:29;;;;;;;20.27;4.82;;;11.50;99.90;;;;;;5089809;28;20054;-74
2023/09/30 01:31:55;;;;;;;18.13;5.15;;;11.50;99.90;;;;;;5071362;28;20398;-74
2023/09/30 01:34:21;;;;;;;20.98;4.35;;;11.70;99.90;;;;;;5071563;28;20351;-75
2023/09/30 01:36:47;;;;;;;15.80;5.35;;;11.60;99.90;;;;;;5071393;28;20066;-76
2023/09/30 01:39:13;;;;;;;17.08;4.63;;;11.60;99.90;;;;;;5071586;28;20035;-76
2023/09/30 01:41:42;;;;;;;17.60;5.43;;;11.60;99.90;;;;;;5070912;28;20047;-75
2023/09/30 01:44:09;;;;;;;13.43;4.47;;;11.60;99.90;;;;;;5071534;28;20043;-76
2023/09/30 01:46:34;;;;;;;19.75;4.93;;;11.60;99.90;;;;;;5054103;28;20060;-74
2023/09/30 01:49:00;;;;;;;15.65;4.50;;;11.70;99.90;;;;;;5071062;28;20436;-75
2023/09/30 01:51:27;;;;;;;18.02;4.07;;;11.80;99.90;;;;;;5071084;28;20052;-75
2023/09/30 01:53:53;;;;;;;13.98;4.18;;;11.70;99.90;;;;;;5088918;28;20036;-74
2023/09/30 01:56:18;;;;;;;14.27;4.55;;;11.70;99.90;;;;;;5089784;28;20461;-75
2023/09/30 01:58:44;;;;;;;14.48;4.45;;;11.70;99.90;;;;;;5070934;28;20452;-74
2023/09/30 02:01:10;;;;;;;15.80;4.47;;;11.80;99.90;;;;;;5054155;28;20059;-75
2023/09/30 02:03:36;;;;;;;18.27;4.60;;;11.80;99.90;;;;;;5071080;28;20039;-75
2023/09/30 02:06:01;;;;;;;12.32;4.15;;;11.80;99.90;;;;;;5071113;28;20096;-75
2023/09/30 02:08:27;;;;;;;12.57;4.05;;;11.80;99.90;;;;;;5071189;28;20455;-75
2023/09/30 02:10:53;;;;;;;14.55;4.00;;;11.90;99.90;;;;;;5089455;28;20032;-75
2023/09/30 02:13:19;;;;;;;14.45;4.63;;;11.90;99.90;;;;;;5088928;28;20039;-75
2023/09/30 02:15:46;;;;;;;15.15;4.15;;;11.80;99.90;;;;;;5071412;28;20044;-76
2023/09/30 02:18:12;;;;;;;18.63;4.10;;;12.10;99.90;;;;;;5071070;28;20048;-76
2023/09/30 02:20:40;;;;;;;15.95;4.10;;;11.90;99.90;;;;;;5070643;28;20188;-75
2023/09/30 02:23:07;;;;;;;12.23;3.60;;;11.90;99.90;;;;;;5070920;28;20112;-75
2023/09/30 02:25:33;;;;;;;16.63;4.10;;;12.20;99.90;;;;;;5062413;28;20056;-75
2023/09/30 02:28:00;;;;;;;15.00;3.80;;;11.90;99.90;;;;;;5089243;28;20155;-75
2023/09/30 02:30:27;;;;;;;14.00;4.30;;;11.90;99.90;;;;;;5088947;28;20048;-75
2023/09/30 02:32:53;;;;;;;14.43;3.65;;;12.00;99.90;;;;;;5070475;28;20506;-76
2023/09/30 02:35:20;;;;;;;11.90;4.13;;;12.00;99.90;;;;;;5070912;28;20117;-75
2023/09/30 02:37:46;;;;;;;22.05;4.50;;;12.00;99.90;;;;;;5080820;28;20048;-76
2023/09/30 02:40:14;;;;;;;16.58;3.90;;;12.00;99.90;;;;;;5089095;28;20044;-75
2023/09/30 02:42:41;;;;;;;14.45;3.90;;;12.00;99.90;;;;;;5070519;28;20840;-76
2023/09/30 02:45:10;;;;;;;11.15;3.75;;;12.00;99.90;;;;;;5070547;28;20123;-77
2023/09/30 02:47:38;;;;;;;12.32;3.70;;;12.00;99.90;;;;;;5089224;28;20056;-76
2023/09/30 02:50:13;;;;;;;11.00;3.40;;;12.00;99.90;;;;;;5088757;28;20044;-76
2023/09/30 02:52:40;;;;;;;13.10;4.15;;;12.00;99.90;;;;;;5071135;28;20081;-75
2023/09/30 02:55:08;;;;;;;15.10;3.50;;;12.10;99.90;;;;;;5088828;28;20093;-76
2023/09/30 02:57:35;;;;;;;15.90;3.83;;;12.00;99.90;;;;;;5092298;28;20059;-77
2023/09/30 03:00:23;;;;;;;17.63;3.65;;;12.10;99.90;;;;;;5092894;28;20107;-76
2023/09/30 03:02:50;;;;;;;17.23;4.05;;;12.10;99.90;;;;;;5073249;28;20559;-76
2023/09/30 03:05:17;;;;;;;10.20;3.30;;;12.10;99.90;;;;;;5073555;28;20553;-76
2023/09/30 03:07:42;;;;;;;13.85;3.92;;;12.50;99.90;;;;;;5093087;28;20440;-76
2023/09/30 03:10:08;;;;;;;13.75;3.30;;;12.20;99.90;;;;;;5074283;28;20123;-75
2023/09/30 03:12:35;;;;;;;14.25;3.40;;;12.10;99.90;;;;;;5053073;28;20048;-75
2023/09/30 03:15:04;;;;;;;12.13;3.45;;;12.10;99.90;;;;;;5091815;28;20055;-76
2023/09/30 03:17:33;;;;;;;16.88;3.80;;;12.20;99.90;;;;;;5074109;28;20075;-76
2023/09/30 03:20:01;;;;;;;15.90;3.90;;;12.30;99.90;;;;;;5091217;28;20055;-76
2023/09/30 03:22:27;;;;;;;12.70;3.47;;;12.10;99.90;;;;;;5092435;28;20082;-76
2023/09/30 03:24:54;;;;;;;11.85;3.70;;;12.10;99.90;;;;;;5091916;28;20413;-76
2023/09/30 03:27:20;;;;;;;12.63;3.55;;;12.10;99.90;;;;;;5073297;28;20048;-76
2023/09/30 03:29:46;;;;;;;13.68;3.47;;;12.20;99.90;;;;;;5092046;28;20145;-76
2023/09/30 03:32:12;;;;;;;16.42;4.15;;;12.10;99.90;;;;;;5092678;28;20478;-76
2023/09/30 03:34:37;;;;;;;8.95;3.22;;;12.10;99.90;;;;;;5073378;28;20502;-76
2023/09/30 03:37:06;;;;;;;13.80;3.47;;;12.10;99.90;;;;;;5074317;28;20043;-76
2023/09/30 03:39:32;;;;;;;8.77;3.17;;;12.40;99.90;;;;;;5073622;28;20056;-76
2023/09/30 03:41:59;;;;;;;11.77;3.67;;;12.10;99.90;;;;;;5072858;28;20051;-76
2023/09/30 03:44:25;;;;;;;11.43;3.60;;;12.10;99.90;;;;;;5073386;28;20077;-75
2023/09/30 03:46:52;;;;;;;12.57;3.20;;;12.10;99.90;;;;;;5073610;28;20047;-75
2023/09/30 03:49:19;;;;;;;17.65;3.67;;;12.20;99.90;;;;;;5073285;28;20050;-75
2023/09/30 03:51:50;;;;;;;13.77;4.13;;;12.10;99.90;;;;;;5073369;28;20070;-75
2023/09/30 03:54:17;;;;;;;20.55;4.40;;;12.10;99.90;;;;;;5073321;28;20079;-75
2023/09/30 03:56:44;;;;;;;15.27;3.67;;;12.10;99.90;;;;;;5091311;28;20064;-75
2023/09/30 03:59:10;;;;;;;12.27;4.10;;;12.10;99.90;;;;;;5091970;28;20039;-76
2023/09/30 04:01:39;;;;;;;14.05;3.83;;;12.10;99.90;;;;;;5073098;28;20048;-77
2023/09/30 04:04:07;;;;;;;16.60;4.40;;;12.00;99.90;;;;;;5055723;28;20541;-76
2023/09/30 04:06:32;;;;;;;14.50;4.07;;;12.00;99.90;;;;;;5073267;28;20047;-75
2023/09/30 04:08:59;;;;;;;17.85;4.35;;;12.40;99.90;;;;;;5072670;28;20534;-76
2023/09/30 04:11:25;;;;;;;10.57;3.63;;;12.70;99.90;;;;;;5072817;28;20545;-76
2023/09/30 04:13:50;;;;;;;16.52;5.30;;;12.10;99.90;;;;;;5089167;28;20040;-76
2023/09/30 04:16:18;;;;;;;11.85;4.30;;;12.20;99.90;;;;;;5090930;28;20051;-75
2023/09/30 04:18:44;;;;;;;18.27;5.00;;;12.00;99.90;;;;;;5091328;28;20143;-77
2023/09/30 04:21:11;;;;;;;19.63;4.68;;;12.00;99.90;;;;;;5073251;28;20131;-77
2023/09/30 04:23:37;;;;;;;13.73;4.35;;;12.00;99.90;;;;;;5072953;28;20050;-77
2023/09/30 04:26:03;;;;;;;18.02;4.72;;;12.00;99.90;;;;;;5072467;28;20214;-76
2023/09/30 04:28:29;;;;;;;20.35;4.72;;;12.00;99.90;;;;;;5072570;28;20116;-76
2023/09/30 04:30:54;;;;;;;16.67;4.78;;;12.00;99.90;;;;;;5072878;28;20060;-76
2023/09/30 04:33:20;;;;;;;20.52;5.10;;;11.90;99.90;;;;;;5091035;28;20055;-74
2023/09/30 04:35:46;;;;;;;17.40;5.28;;;11.90;99.90;;;;;;5090948;28;20118;-76
2023/09/30 04:38:13;;;;;;;17.73;5.00;;;11.90;99.90;;;;;;5071947;28;20059;-74
2023/09/30 04:40:39;;;;;;;18.35;5.03;;;11.90;99.90;;;;;;5071382;28;20059;-76
2023/09/30 04:43:05;;;;;;;18.00;5.47;;;11.90;99.90;;;;;;5072007;28;20714;-75
2023/09/30 04:45:31;;;;;;;21.95;5.40;;;12.30;99.90;;;;;;5090778;28;20384;-73
2023/09/30 04:47:57;;;;;;;16.30;4.75;;;11.90;99.90;;;;;;5090654;28;20048;-76
2023/09/30 04:50:23;;;;;;;18.50;5.22;;;11.80;99.90;;;;;;5072520;28;20509;-75
2023/09/30 04:52:49;;;;;;;16.25;5.45;;;11.70;99.90;;;;;;5071894;28;20048;-74
2023/09/30 04:55:18;;;;;;;15.70;5.53;;;11.80;99.90;;;;;;5090869;28;20052;-75
2023/09/30 04:57:47;;;;;;;20.13;6.00;;;11.80;99.90;;;;;;5072090;28;20048;-76
2023/09/30 05:00:18;;;;;;;20.80;6.22;;;11.70;99.90;;;;;;5072432;28;20048;-76
2023/09/30 05:02:47;;;;;;;14.65;5.82;;;11.70;99.90;;;;;;5090349;28;20052;-75
2023/09/30 05:05:14;;;;;;;14.68;5.63;;;11.70;99.90;;;;;;5090003;28;20048;-75
2023/09/30 05:07:41;;;;;;;15.02;5.85;;;11.70;99.90;;;;;;5055499;28;20101;-76
2023/09/30 05:10:11;;;;;;;19.17;6.10;;;11.70;99.90;;;;;;5071477;28;20147;-75
2023/09/30 05:12:37;;;;;;;16.90;6.20;;;11.70;99.90;;;;;;5089221;28;20048;-76
2023/09/30 05:15:06;;;;;;;21.30;6.13;;;11.80;99.90;;;;;;5089694;28;20069;-74
2023/09/30 05:17:32;;;;;;;19.73;6.68;;;11.70;99.90;;;;;;5071796;28;20502;-75
2023/09/30 05:19:58;;;;;;;17.20;6.40;;;11.60;99.90;;;;;;5070565;28;20153;-75
2023/09/30 05:22:24;;;;;;;18.90;6.78;;;11.60;99.90;;;;;;5071472;28;20793;-76
2023/09/30 05:24:53;;;;;;;17.25;5.65;;;11.60;99.90;;;;;;5071775;28;20043;-75
2023/09/30 05:27:19;;;;;;;18.63;6.95;;;11.60;99.90;;;;;;5071502;28;20108;-75
2023/09/30 05:29:45;;;;;;;19.92;6.90;;;11.80;99.90;;;;;;5054207;28;20040;-76
2023/09/30 05:32:11;;;;;;;14.80;6.88;;;11.50;99.90;;;;;;5089921;28;20046;-76
2023/09/30 05:34:39;;;;;;;23.13;7.25;;;11.50;99.90;;;;;;5091304;28;20185;-76
2023/09/30 05:37:04;;;;;;;18.65;6.95;;;11.50;99.90;;;;;;5089505;28;20452;-74
2023/09/30 05:39:31;;;;;;;21.40;7.22;;;11.50;99.90;;;;;;5071190;28;20056;-74
2023/09/30 05:42:00;;;;;;;21.15;7.47;;;11.50;99.90;;;;;;5070630;28;20209;-75
2023/09/30 05:44:27;;;;;;;19.05;7.43;;;11.80;99.90;;;;;;5073022;28;20052;-75
2023/09/30 05:46:53;;;;;;;16.23;6.40;;;11.40;99.90;;;;;;5071128;28;20059;-74
2023/09/30 05:49:19;;;;;;;16.40;6.85;;;11.40;99.90;;;;;;5070974;28;20056;-75
2023/09/30 05:51:46;;;;;;;23.85;7.72;;;11.40;99.90;;;;;;5070976;28;20059;-76
2023/09/30 05:54:12;;;;;;;20.60;6.78;;;11.30;99.90;;;;;;5071028;28;20482;-75
2023/09/30 05:56:38;;;;;;;17.70;7.05;;;11.50;99.90;;;;;;5089367;28;20044;-74
2023/09/30 05:59:07;;;;;;;19.00;7.07;;;11.30;99.90;;;;;;5071695;28;20036;-74
2023/09/30 06:01:33;;;;;;;23.00;8.02;;;11.30;99.90;;;;;;5070899;28;20048;-74
2023/09/30 06:04:00;;;;;;;19.20;7.22;;;11.30;99.90;;;;;;5089221;28;20696;-75
2023/09/30 06:06:28;;;;;;;20.15;7.80;;;11.80;99.90;;;;;;5071188;28;20040;-74
2023/09/30 06:08:54;;;;;;;19.55;6.78;;;11.90;99.90;;;;;;5089273;28;20043;-75
2023/09/30 06:11:32;;;;;;;16.40;7.40;;;11.80;99.90;;;;;;5071094;28;20074;-75
2023/09/30 06:14:01;;;;;;;15.90;6.60;;;11.30;99.90;;;;;;5070931;28;20055;-74
2023/09/30 06:16:31;;;;;;;16.13;7.57;;;11.30;99.90;;;;;;5089244;28;20040;-74
2023/09/30 06:18:57;;;;;;;16.50;7.57;;;11.20;99.90;;;;;;5070670;28;20060;-75
2023/09/30 06:21:24;;;;;;;15.80;6.88;;;11.30;99.90;;;;;;5054045;28;20793;-75
2023/09/30 06:23:53;;;;;;;20.95;8.13;;;11.60;99.90;;;;;;5053704;28;20048;-74
2023/09/30 06:26:20;;;;;;;15.95;7.45;;;11.40;99.90;;;;;;5071058;28;20052;-74
2023/09/30 06:28:47;;;;;;;20.33;7.57;;;11.30;99.90;;;;;;5089146;28;20090;-74
2023/09/30 06:31:14;;;;;;;14.90;7.03;;;11.50;99.90;;;;;;5089924;28;20044;-75
2023/09/30 06:33:40;;;;;;;18.67;8.30;;;11.80;99.90;;;;;;5067246;28;20040;-74
2023/09/30 06:36:15;;;;;;;19.98;8.40;;;11.30;99.90;;;;;;5075238;28;20410;-74
2023/09/30 06:38:41;;;;;;;19.20;7.63;;;11.30;99.90;;;;;;5074943;28;20745;-74
2023/09/30 06:41:08;;;;;;;18.08;7.60;;;11.40;99.90;;;;;;5074535;28;20056;-74
2023/09/30 06:43:35;;;;;;;20.35;8.60;;;11.40;99.90;;;;;;5092949;28;20036;-74
2023/09/30 06:46:08;;;;;;;19.08;8.70;;;11.50;99.90;;;;;;5074826;28;20069;-74
2023/09/30 06:48:33;;;;;;;20.58;8.90;;;11.90;99.90;;;;;;5093122;28;20479;-74
2023/09/30 06:51:00;;;;;;;23.35;9.73;;;11.50;99.90;;;;;;5092548;28;20058;-74
2023/09/30 06:53:25;;;;;;;17.70;8.85;;;12.00;99.90;;;;;;5051139;28;20574;-74
2023/09/30 06:55:51;;;;;;;23.58;9.57;;;11.60;99.90;;;;;;5073507;28;20215;-74
2023/09/30 06:58:20;;;;;;;21.08;9.90;;;11.70;99.90;;;;;;5092881;28;20051;-74
2023/09/30 07:00:50;;;;;;;18.17;10.00;;;11.80;99.90;;;;;;5092489;28;20043;-74
2023/09/30 07:03:19;;;;;;;21.08;9.85;;;11.80;99.90;;;;;;5074576;28;20740;-74
2023/09/30 07:05:45;;;;;;;22.70;10.13;;;11.90;99.90;;;;;;5074628;28;20785;-74
2023/09/30 07:08:11;;;;;;;24.90;10.93;;;11.90;99.90;;;;;;5092856;28;20450;-74
2023/09/30 07:10:37;;;;;;;21.23;10.30;;;12.10;99.90;;;;;;5092563;28;20501;-74
2023/09/30 07:13:03;;;;;;;27.38;11.43;;;12.50;99.90;;;;;;5074070;28;20040;-74
2023/09/30 07:15:29;;;;;;;27.13;11.02;;;12.10;99.90;;;;;;5074755;28;20051;-74
2023/09/30 07:17:56;;;;;;;23.95;10.25;;;12.20;99.90;;;;;;5057990;28;20048;-73
2023/09/30 07:20:22;;;;;;;23.35;11.10;;;12.20;99.90;;;;;;5093368;28;20119;-74
2023/09/30 07:22:48;;;;;;;23.67;10.57;;;12.30;99.90;;;;;;5093585;28;20044;-74
2023/09/30 07:25:16;;;;;;;22.02;10.82;;;12.40;99.90;;;;;;5074903;28;20100;-74
2023/09/30 07:27:44;;;;;;;20.58;10.52;;;12.40;99.90;;;;;;5074666;28;20047;-75
2023/09/30 07:30:12;;;;;;;23.13;10.77;;;12.50;99.90;;;;;;5093008;28;20048;-74
2023/09/30 07:32:38;;;;;;;19.50;10.55;;;12.60;99.90;;;;;;5074710;28;20435;-74
2023/09/30 07:35:04;;;;;;;16.42;10.48;;;12.60;99.90;;;;;;5074356;28;20368;-75
2023/09/30 07:37:30;;;;;;;24.33;11.05;;;12.70;99.90;;;;;;5074300;28;20036;-74
2023/09/30 07:39:55;;;;;;;21.48;11.57;;;12.80;99.90;;;;;;5054129;28;20406;-73
2023/09/30 07:42:22;;;;;;;28.52;11.60;;;12.80;99.90;;;;;;5092601;28;20052;-74
2023/09/30 07:44:48;;;;;;;20.35;10.13;;;12.90;99.90;;;;;;5092003;28;20044;-75
2023/09/30 07:47:14;;;;;;;20.10;10.43;;;13.00;99.90;;;;;;5074909;28;20056;-75
2023/09/30 07:49:40;;;;;;;22.20;10.43;;;13.10;99.90;;;;;;5092392;28;20044;-74
2023/09/30 07:52:06;;;;;;;31.77;11.88;;;13.20;99.90;;;;;;5092477;28;20040;-74
2023/09/30 07:54:32;;;;;;;21.73;11.35;;;13.30;99.90;;;;;;5092380;28;20069;-75
2023/09/30 07:56:58;;;;;;;26.20;11.27;;;13.40;99.90;;;;;;5073918;28;20040;-74
2023/09/30 07:59:25;;;;;;;24.17;10.40;;;13.40;99.90;;;;;;5073896;28;20058;-74
2023/09/30 08:01:52;;;;;;;25.00;10.30;;;13.50;99.90;;;;;;5091914;28;20072;-75
2023/09/30 08:04:18;;;;;;;19.40;11.15;;;13.60;99.90;;;;;;5092046;28;20063;-74
2023/09/30 08:06:44;;;;;;;21.33;10.88;;;13.70;99.90;;;;;;5092202;28;20051;-75
2023/09/30 08:09:13;;;;;;;23.15;10.10;;;13.80;99.90;;;;;;5073577;28;20131;-75
2023/09/30 08:11:38;;;;;;;19.27;9.63;;;13.90;99.90;;;;;;5092025;28;20347;-74
2023/09/30 08:14:06;;;;;;;25.13;9.82;;;14.10;99.90;;;;;;5089658;28;20055;-73
2023/09/30 08:16:42;;;;;;;21.52;10.15;;;14.30;99.90;;;;;;5072815;28;20056;-73
2023/09/30 08:19:08;;;;;;;24.58;9.63;;;14.30;99.90;;;;;;5086699;28;20057;-74
2023/09/30 08:21:34;;;;;;;26.42;9.73;;;14.40;99.90;;;;;;5069978;28;20153;-75
2023/09/30 08:24:01;;;;;;;22.10;9.10;;;14.50;99.90;;;;;;5074420;28;20432;-74
2023/09/30 08:26:27;;;;;;;22.88;10.15;;;14.70;99.90;;;;;;5075524;28;20105;-75
2023/09/30 08:28:53;;;;;;;21.17;10.10;;;14.80;99.90;;;;;;5090314;28;20354;-75
2023/09/30 08:31:19;;;;;;;18.67;9.52;;;14.90;99.90;;;;;;5074754;28;20054;-75
2023/09/30 08:33:45;;;;;;;23.38;10.23;;;15.10;99.90;;;;;;5078385;28;20043;-76
2023/09/30 08:36:11;;;;;;;17.35;9.35;;;15.20;99.90;;;;;;5081970;28;20097;-75
2023/09/30 08:38:40;;;;;;;19.45;8.45;;;15.40;99.90;;;;;;5091665;28;20129;-76
2023/09/30 08:41:07;;;;;;;19.13;8.55;;;15.50;99.90;;;;;;5090860;28;20113;-75
2023/09/30 08:43:38;;;;;;;20.20;9.15;;;15.60;99.90;;;;;;5091413;28;20044;-77
2023/09/30 08:46:07;;;;;;;20.45;9.30;;;15.80;99.90;;;;;;5091009;28;20524;-75
2023/09/30 08:48:34;;;;;;;22.85;8.05;;;16.00;99.90;;;;;;5091173;28;20573;-77
2023/09/30 08:51:01;;;;;;;13.23;7.10;;;16.10;99.90;;;;;;5073001;28;20054;-76
2023/09/30 08:53:28;;;;;;;15.13;7.93;;;16.20;99.90;;;;;;5056151;28;20052;-76
2023/09/30 08:55:55;;;;;;;16.75;7.57;;;16.30;99.90;;;;;;5072596;28;20083;-77
2023/09/30 08:58:26;;;;;;;18.42;7.20;;;16.50;99.90;;;;;;5091060;28;20134;-75
2023/09/30 09:00:52;;;;;;;14.02;7.70;;;16.60;99.90;;;;;;5072507;28;20084;-77
2023/09/30 09:03:21;;;;;;;17.75;7.40;;;16.80;99.90;;;;;;5071830;28;20531;-77
2023/09/30 09:05:55;;;;;;;16.98;7.30;;;16.90;99.90;;;;;;5091367;28;20131;-78
2023/09/30 09:08:23;;;;;;;20.10;6.60;;;17.00;99.90;;;;;;5083206;28;20050;-77
2023/09/30 09:10:57;;;;;;;14.40;5.85;;;17.20;99.90;;;;;;5090210;28;20102;-78
2023/09/30 09:13:23;;;;;;;15.23;6.72;;;17.40;99.90;;;;;;5048274;28;20071;-77
2023/09/30 09:15:49;;;;;;;17.88;6.13;;;17.50;99.90;;;;;;5086088;28;20047;-78
2023/09/30 09:18:35;;;;;;;15.82;6.15;;;17.60;99.90;;;;;;5090342;28;20052;-79
2023/09/30 09:21:13;;;;;;;15.38;5.47;;;17.80;99.90;;;;;;5090357;28;20080;-79
2023/09/30 09:23:40;;;;;;;12.82;5.38;;;18.00;99.90;;;;;;5065291;28;20555;-79
2023/09/30 09:26:07;;;;;;;17.00;5.75;;;18.10;99.90;;;;;;5072083;28;20039;-78
2023/09/30 09:28:38;;;;;;;10.35;4.25;;;18.30;99.90;;;;;;5063935;28;20540;-78
2023/09/30 09:31:23;;;;;;;14.38;4.20;;;18.40;99.90;;;;;;5089892;28;20487;-77
2023/09/30 09:33:53;;;;;;;12.30;4.00;;;18.50;99.90;;;;;;5065253;28;20047;-80
2023/09/30 09:36:19;;;;;;;14.02;4.95;;;18.60;99.90;;;;;;5090489;28;20111;-78
2023/09/30 09:38:46;;;;;;;11.45;4.07;;;18.80;99.90;;;;;;5090348;28;20111;-79
2023/09/30 09:41:11;;;;;;;9.52;3.92;;;18.90;99.90;;;;;;5090225;28;20154;-80
2023/09/30 09:43:38;;;;;;;10.55;3.63;;;19.00;99.90;;;;;;5090553;28;20131;-80
2023/09/30 09:46:08;;;;;;;12.25;3.38;;;19.20;99.90;;;;;;5072332;28;20486;-78
2023/09/30 09:48:37;;;;;;;19.02;4.35;;;19.30;99.90;;;;;;5072369;28;20431;-80
2023/09/30 09:51:07;;;;;;;10.80;3.13;;;19.40;99.90;;;;;;5090461;28;20188;-80
2023/09/30 09:53:37;;;;;;;12.15;3.63;;;19.60;99.90;;;;;;5072348;28;20103;-81
2023/09/30 09:56:03;;;;;;;12.63;3.55;;;19.80;99.90;;;;;;5082217;28;20036;-79
2023/09/30 09:58:34;;;;;;;14.73;3.58;;;19.90;99.90;;;;;;5090306;28;20052;-79
2023/09/30 10:01:01;;;;;;;15.63;3.72;;;20.10;99.90;;;;;;5071473;28;20036;-81
2023/09/30 10:03:27;;;;;;;12.52;3.30;;;20.20;99.90;;;;;;5071842;28;20056;-79
2023/09/30 10:05:53;;;;;;;12.65;2.47;;;20.20;99.90;;;;;;5071497;28;20753;-81
2023/09/30 10:08:22;;;;;;;15.43;2.95;;;20.00;99.90;;;;;;5054942;28;20060;-80
2023/09/30 10:10:48;;;;;;;12.30;3.40;;;19.90;99.90;;;;;;5090105;28;20588;-81
2023/09/30 10:13:57;;;;;;;11.45;3.60;;;19.90;99.90;;;;;;5090136;28;20422;-77
2023/09/30 10:16:35;;;;;;;15.85;3.55;;;19.80;99.90;;;;;;5081409;28;20518;-82
2023/09/30 10:19:11;;;;;;;13.43;2.88;;;19.60;99.90;;;;;;5089794;28;20144;-81
2023/09/30 10:21:39;;;;;;;13.07;2.47;;;19.60;99.90;;;;;;5071624;28;20127;-81
2023/09/30 10:24:23;;;;;;;12.70;2.15;;;19.50;99.90;;;;;;5054949;28;20101;-81
2023/09/30 10:27:32;;;;;;;10.40;1.77;;;19.40;99.90;;;;;;5065835;28;20399;-80
2023/09/30 10:29:59;;;;;;;12.00;2.42;;;19.20;99.90;;;;;;5066241;28;20130;-81
2023/09/30 10:32:50;;;;;;;10.02;2.58;;;19.10;99.90;;;;;;5089548;28;20048;-80
2023/09/30 10:35:17;;;;;;;14.35;2.05;;;19.00;99.90;;;;;;5071530;28;20130;-81
2023/09/30 10:37:43;;;;;;;12.32;2.25;;;18.90;99.90;;;;;;5063209;28;20536;-82
2023/09/30 10:40:10;;;;;;;11.65;2.05;;;18.70;99.90;;;;;;5089510;28;20076;-81
2023/09/30 10:42:45;;;;;;;10.85;2.85;;;18.70;99.90;;;;;;5089516;28;20036;-80
2023/09/30 10:45:38;;;;;;;11.23;2.20;;;18.90;99.90;;;;;;5089688;28;20123;-81
2023/09/30 10:48:26;;;;;;;12.00;2.10;;;19.20;99.90;;;;;;5082600;28;20406;-81
2023/09/30 10:50:58;;;;;;;12.70;2.58;;;19.40;99.90;;;;;;5071508;28;20056;-80
2023/09/30 10:53:25;;;;;;;6.35;1.38;;;19.60;99.90;;;;;;5071613;28;20566;-80
2023/09/30 10:55:58;;;;;;;11.98;2.17;;;19.70;99.90;;;;;;5089678;28;20048;-80
2023/09/30 10:58:47;;;;;;;6.95;1.35;;;19.80;99.90;;;;;;5054177;28;20109;-81
2023/09/30 11:01:17;;;;;;;13.60;1.70;;;20.10;99.90;;;;;;5082420;28;20112;-79
2023/09/30 11:03:44;;;;;;;7.68;1.55;;;20.10;99.90;;;;;;5071592;28;20415;-81
2023/09/30 11:06:17;;;;;;;8.65;1.42;;;20.40;99.90;;;;;;5089505;28;20074;-81
2023/09/30 11:08:46;;;;;;;8.30;1.48;;;20.50;99.90;;;;;;5071192;28;20077;-81
2023/09/30 11:11:14;;;;;;;10.40;1.70;;;20.60;99.90;;;;;;5070836;28;20067;-80
2023/09/30 11:13:40;;;;;;;8.90;1.67;;;20.30;99.90;;;;;;5071466;28;20079;-82
2023/09/30 11:16:06;;;;;;;9.38;1.33;;;20.30;99.90;;;;;;5089492;28;20064;-81
2023/09/30 11:18:32;;;;;;;9.63;1.52;;;20.10;99.90;;;;;;5090093;28;20415;-81
2023/09/30 11:21:06;;;;;;;6.20;1.67;;;19.90;99.90;;;;;;5074918;28;20550;-80
2023/09/30 11:23:33;;;;;;;15.63;1.88;;;19.70;99.90;;;;;;5067232;28;20055;-81
2023/09/30 11:25:59;;;;;;;9.82;1.33;;;19.60;99.90;;;;;;5074820;28;20137;-81
2023/09/30 11:28:27;;;;;;;11.23;2.17;;;19.40;99.90;;;;;;5074421;28;20077;-80
2023/09/30 11:30:57;;;;;;;9.40;1.45;;;19.20;99.90;;;;;;5093077;28;20509;-80
2023/09/30 11:33:24;;;;;;;9.77;1.38;;;19.10;99.90;;;;;;5074615;28;20039;-82
2023/09/30 11:38:43;;;;;;;14.60;2.25;;;18.70;99.90;;;;;;5286770;22;20049;-81
2023/09/30 11:41:10;;;;;;;11.77;1.73;;;18.70;99.90;;;;;;5044511;28;20055;-81
2023/09/30 11:43:36;;;;;;;8.10;1.30;;;18.70;99.90;;;;;;5025146;28;20052;-78
2023/09/30 11:46:10;;;;;;;11.73;1.95;;;18.60;99.90;;;;;;5023317;28;20046;-79
2023/09/30 11:48:55;;;;;;;7.43;1.60;;;18.80;99.90;;;;;;5023829;28;20128;-77
2023/09/30 11:51:26;;;;;;;9.40;1.63;;;19.20;99.90;;;;;;5044035;28;20041;-79
2023/09/30 11:53:53;;;;;;;11.32;1.42;;;19.50;99.90;;;;;;5041733;28;20045;-81
2023/09/30 11:56:19;;;;;;;9.38;1.60;;;19.60;99.90;;;;;;5023233;28;20057;-79
2023/09/30 11:58:46;;;;;;;9.27;2.00;;;19.80;99.90;;;;;;5023271;28;20136;-79
2023/09/30 12:01:13;;;;;;;12.65;2.00;;;19.90;99.90;;;;;;5044177;28;20041;-79
2023/09/30 12:03:40;;;;;;;9.90;1.30;;;20.20;99.90;;;;;;5024978;28;20067;-78
2023/09/30 12:06:13;;;;;;;9.27;1.67;;;20.30;99.90;;;;;;5041335;28;20140;-79
2023/09/30 12:08:39;;;;;;;7.78;1.48;;;20.30;99.90;;;;;;5040561;28;20115;-78
2023/09/30 12:11:05;;;;;;;9.90;1.73;;;20.20;99.90;;;;;;5024443;28;20538;-79
2023/09/30 12:13:31;;;;;;;9.60;1.92;;;20.30;99.90;;;;;;5043666;28;20077;-80
2023/09/30 12:15:57;;;;;;;5.90;1.40;;;20.30;99.90;;;;;;5025674;28;20400;-79
2023/09/30 12:18:24;;;;;;;9.80;1.88;;;20.40;99.90;;;;;;5048790;28;20091;-80
2023/09/30 12:20:52;;;;;;;10.60;1.63;;;20.40;99.90;;;;;;5039938;28;20497;-78
2023/09/30 12:23:19;;;;;;;6.90;1.35;;;20.40;99.90;;;;;;5024412;28;20076;-79
2023/09/30 12:25:46;;;;;;;10.48;1.50;;;20.30;99.90;;;;;;5025450;28;20045;-79
2023/09/30 12:28:14;;;;;;;6.18;1.50;;;20.30;99.90;;;;;;5042880;28;20049;-80
2023/09/30 12:30:40;;;;;;;9.40;1.88;;;20.30;99.90;;;;;;5021598;28;20050;-79
2023/09/30 12:33:06;;;;;;;7.20;1.60;;;20.30;99.90;;;;;;5022037;28;20067;-79
2023/09/30 12:35:33;;;;;;;6.68;1.40;;;20.40;99.90;;;;;;5041439;28;20049;-80
2023/09/30 12:37:58;;;;;;;8.18;1.63;;;20.30;99.90;;;;;;5024784;28;20064;-80
2023/09/30 12:40:24;;;;;;;11.20;2.05;;;20.40;99.90;;;;;;5042763;28;20057;-78
2023/09/30 12:42:50;;;;;;;11.48;2.15;;;20.40;99.90;;;;;;5022336;28;20048;-80
2023/09/30 12:45:17;;;;;;;7.82;1.58;;;20.30;99.90;;;;;;5022024;28;20079;-80